Time;durP1;ratioP1;P1;durP2;ratioP2;P2;SDS_P1;SDS_P2;PMS_P1;PMS_P2;Temp;Humidity;BMP_temperature;BMP_pressure;BME280_temperature;BME280_humidity;BME280_pressure;Samples;Min_cycle;Max_cycle;Signal;HPM_P1;HPM_P2
2022/06/05 00:02:02;;;;;;;4.60;4.20;;;13.00;99.90;;;;;;5195270;28;20319;-53
2022/06/05 00:04:39;;;;;;;12.13;5.20;;;12.90;99.90;;;;;;5185436;28;20188;-53
2022/06/05 00:07:31;;;;;;;7.63;5.53;;;12.90;99.90;;;;;;5200319;28;20443;-54
2022/06/05 00:10:10;;;;;;;6.00;5.53;;;12.90;99.90;;;;;;5171198;28;20463;-54
2022/06/05 00:13:15;;;;;;;6.83;6.13;;;12.90;99.90;;;;;;5184792;28;20450;-52
2022/06/05 00:15:46;;;;;;;6.43;5.80;;;12.90;99.90;;;;;;5157050;28;20426;-53
2022/06/05 00:18:17;;;;;;;6.37;5.83;;;12.80;99.90;;;;;;5181788;28;20460;-54
2022/06/05 00:20:47;;;;;;;8.07;5.70;;;12.80;99.90;;;;;;5183631;28;20446;-53
2022/06/05 00:23:18;;;;;;;7.67;5.53;;;12.80;99.90;;;;;;5199676;28;20648;-53
2022/06/05 00:25:51;;;;;;;7.83;6.20;;;12.70;99.90;;;;;;5184894;28;20547;-53
2022/06/05 00:28:22;;;;;;;9.37;6.77;;;12.60;99.90;;;;;;5184906;28;20204;-54
2022/06/05 00:31:36;;;;;;;10.43;5.90;;;12.60;99.90;;;;;;5185500;28;20471;-54
2022/06/05 00:34:07;;;;;;;12.03;6.70;;;12.50;99.90;;;;;;5177555;28;20323;-52
2022/06/05 00:37:08;;;;;;;8.93;6.70;;;12.50;99.90;;;;;;5191741;28;20577;-54
2022/06/05 00:39:52;;;;;;;8.13;6.50;;;12.40;99.90;;;;;;5180244;28;20270;-53
2022/06/05 00:42:29;;;;;;;11.60;7.20;;;12.40;99.90;;;;;;5184752;28;20830;-54
2022/06/05 00:45:09;;;;;;;9.03;6.87;;;12.30;99.90;;;;;;5184695;28;20462;-53
2022/06/05 00:47:41;;;;;;;12.90;6.70;;;12.30;99.90;;;;;;5184397;28;20842;-53
2022/06/05 00:50:15;;;;;;;6.90;6.13;;;12.20;99.90;;;;;;5186742;28;20473;-51
2022/06/05 00:52:49;;;;;;;8.90;6.50;;;12.20;99.90;;;;;;5188486;28;20436;-54
2022/06/05 00:55:20;;;;;;;8.30;6.77;;;12.20;99.90;;;;;;5198737;28;20410;-53
2022/06/05 00:57:54;;;;;;;12.27;6.30;;;12.10;99.90;;;;;;5189610;28;20923;-52
2022/06/05 01:00:35;;;;;;;11.67;7.40;;;12.10;99.90;;;;;;5188145;28;20575;-54
2022/06/05 01:03:09;;;;;;;10.17;7.80;;;12.00;99.90;;;;;;5185209;28;20818;-52
2022/06/05 01:05:40;;;;;;;8.63;7.30;;;12.10;99.90;;;;;;5188776;28;20447;-52
2022/06/05 01:08:12;;;;;;;9.17;8.10;;;12.00;99.90;;;;;;5185879;28;20520;-53
2022/06/05 01:11:22;;;;;;;11.00;7.57;;;12.00;99.90;;;;;;5187749;28;20661;-52
2022/06/05 01:14:05;;;;;;;8.70;7.90;;;11.90;99.90;;;;;;5188571;28;20438;-53
2022/06/05 01:16:46;;;;;;;9.80;6.77;;;11.90;99.90;;;;;;5203502;28;20462;-53
2022/06/05 01:19:40;;;;;;;9.03;8.07;;;11.80;99.90;;;;;;5199198;28;20914;-53
2022/06/05 01:22:31;;;;;;;11.10;8.50;;;11.70;99.90;;;;;;5188473;28;20427;-51
2022/06/05 01:25:38;;;;;;;8.10;7.30;;;11.70;99.90;;;;;;5195181;28;20429;-51
2022/06/05 01:28:22;;;;;;;9.10;7.40;;;11.60;99.90;;;;;;5184855;28;20469;-52
2022/06/05 01:31:20;;;;;;;9.20;7.70;;;11.60;99.90;;;;;;5179550;28;20828;-53
2022/06/05 01:34:19;;;;;;;10.80;8.27;;;11.50;99.90;;;;;;5175883;28;20439;-52
2022/06/05 01:37:08;;;;;;;11.70;8.07;;;11.50;99.90;;;;;;5186973;28;20935;-53
2022/06/05 01:40:08;;;;;;;12.60;8.90;;;11.40;99.90;;;;;;5175688;28;20463;-51
2022/06/05 01:42:43;;;;;;;14.93;8.60;;;11.40;99.90;;;;;;5176201;28;20442;-52
2022/06/05 01:45:38;;;;;;;16.53;10.10;;;11.40;99.90;;;;;;5184934;28;20438;-53
2022/06/05 01:48:16;;;;;;;13.57;9.43;;;11.40;99.90;;;;;;5186534;28;21072;-53
2022/06/05 01:50:53;;;;;;;13.27;9.20;;;11.40;99.90;;;;;;5188842;28;20974;-53
2022/06/05 01:53:43;;;;;;;11.50;8.90;;;11.40;99.90;;;;;;5185767;28;20434;-52
2022/06/05 01:56:21;;;;;;;12.97;9.13;;;11.40;99.90;;;;;;5187473;28;20488;-52
2022/06/05 01:59:01;;;;;;;13.70;9.27;;;11.40;99.90;;;;;;5186304;28;20451;-53
2022/06/05 02:01:37;;;;;;;12.13;10.20;;;11.30;99.90;;;;;;5201075;28;20429;-53
2022/06/05 02:04:18;;;;;;;13.10;9.67;;;11.30;99.90;;;;;;5188324;28;20461;-52
2022/06/05 02:06:53;;;;;;;13.57;9.83;;;11.30;99.90;;;;;;5187411;28;20446;-52
2022/06/05 02:09:34;;;;;;;22.83;10.80;;;11.30;99.90;;;;;;5187066;28;20466;-53
2022/06/05 02:12:07;;;;;;;9.90;8.53;;;11.20;99.90;;;;;;5186074;28;20467;-53
2022/06/05 02:14:42;;;;;;;18.63;9.77;;;11.20;99.90;;;;;;5200401;28;20499;-53
2022/06/05 02:17:13;;;;;;;15.73;9.83;;;11.20;99.90;;;;;;5186760;28;20485;-51
2022/06/05 02:19:44;;;;;;;15.80;9.50;;;11.10;99.90;;;;;;5185003;28;20595;-52
2022/06/05 02:22:26;;;;;;;12.57;10.73;;;11.10;99.90;;;;;;5186651;28;20873;-53
2022/06/05 02:24:57;;;;;;;18.93;10.27;;;11.00;99.90;;;;;;5202436;28;20441;-53
2022/06/05 02:27:27;;;;;;;12.57;10.40;;;11.10;99.90;;;;;;5184881;28;20839;-53
2022/06/05 02:29:59;;;;;;;14.80;10.40;;;11.00;99.90;;;;;;5195291;28;20191;-53
2022/06/05 02:32:53;;;;;;;12.70;9.30;;;11.00;99.90;;;;;;5186905;28;20578;-52
2022/06/05 02:35:51;;;;;;;17.67;9.80;;;11.00;99.90;;;;;;5186044;28;20485;-53
2022/06/05 02:38:34;;;;;;;11.23;9.57;;;11.00;99.90;;;;;;5186311;28;20502;-52
2022/06/05 02:41:13;;;;;;;11.90;9.90;;;11.00;99.90;;;;;;5202546;28;20454;-53
2022/06/05 02:46:55;;;;;;;16.50;10.60;;;10.90;99.90;;;;;;5187368;28;20462;-53
2022/06/05 02:49:40;;;;;;;15.00;10.83;;;11.00;99.90;;;;;;5183742;28;20441;-53
2022/06/05 02:52:11;;;;;;;16.47;9.43;;;10.90;99.90;;;;;;5198579;28;20494;-53
2022/06/05 02:55:01;;;;;;;22.10;11.83;;;10.90;99.90;;;;;;5201153;28;20989;-53
2022/06/05 02:57:32;;;;;;;10.70;9.63;;;10.90;99.90;;;;;;5185984;28;20263;-52
2022/06/05 03:00:15;;;;;;;13.17;10.43;;;10.90;99.90;;;;;;5185649;28;20796;-51
2022/06/05 03:05:38;;;;;;;16.60;10.57;;;10.80;99.90;;;;;;5185851;28;20950;-52
2022/06/05 03:08:10;;;;;;;14.23;10.20;;;10.80;99.90;;;;;;5198144;28;20899;-51
2022/06/05 03:10:41;;;;;;;14.33;9.50;;;10.80;99.90;;;;;;5185223;28;20974;-53
2022/06/05 03:13:13;;;;;;;12.27;10.87;;;10.80;99.90;;;;;;5188039;28;20470;-52
2022/06/05 03:15:44;;;;;;;16.90;10.37;;;10.80;99.90;;;;;;5184098;28;20465;-52
2022/06/05 03:18:14;;;;;;;15.33;9.93;;;10.90;99.90;;;;;;5185990;28;20541;-52
2022/06/05 03:20:45;;;;;;;15.80;10.23;;;10.80;99.90;;;;;;5185874;28;20200;-53
2022/06/05 03:23:15;;;;;;;14.00;10.47;;;10.80;99.90;;;;;;5201401;28;20187;-52
2022/06/05 03:25:46;;;;;;;11.00;9.57;;;10.80;99.90;;;;;;5201059;28;20703;-52
2022/06/05 03:28:17;;;;;;;14.60;10.40;;;10.80;99.90;;;;;;5186940;28;20214;-52
2022/06/05 03:30:47;;;;;;;14.23;9.80;;;10.80;99.90;;;;;;5200959;28;20211;-53
2022/06/05 03:33:19;;;;;;;12.67;10.23;;;10.80;99.90;;;;;;5185278;28;20188;-51
2022/06/05 03:35:49;;;;;;;22.17;11.80;;;10.80;99.90;;;;;;5196803;28;20193;-51
2022/06/05 03:38:20;;;;;;;17.50;10.23;;;10.70;99.90;;;;;;5185482;28;20466;-50
2022/06/05 03:40:51;;;;;;;17.33;10.33;;;10.80;99.90;;;;;;5185212;28;20192;-49
2022/06/05 03:43:21;;;;;;;15.03;10.90;;;10.80;99.90;;;;;;5186623;28;20184;-50
2022/06/05 03:46:07;;;;;;;18.90;10.50;;;10.80;99.90;;;;;;5197758;28;20216;-50
2022/06/05 03:48:38;;;;;;;15.93;9.57;;;10.70;99.90;;;;;;5195998;28;20230;-51
2022/06/05 03:51:12;;;;;;;14.40;11.87;;;10.70;99.90;;;;;;5182202;28;20474;-50
2022/06/05 03:53:43;;;;;;;12.93;10.50;;;10.70;99.90;;;;;;5185530;28;20941;-50
2022/06/05 03:56:17;;;;;;;14.27;12.00;;;10.80;99.90;;;;;;5184972;28;20439;-51
2022/06/05 03:58:49;;;;;;;18.70;10.33;;;10.80;99.90;;;;;;5198072;28;20450;-50
2022/06/05 04:01:22;;;;;;;16.70;10.87;;;10.80;99.90;;;;;;5184524;28;20780;-50
2022/06/05 04:03:54;;;;;;;13.63;10.90;;;10.80;99.90;;;;;;5185155;28;20931;-50
2022/06/05 04:06:27;;;;;;;17.13;11.13;;;10.90;99.90;;;;;;5185361;28;20779;-50
2022/06/05 04:09:03;;;;;;;16.20;10.30;;;10.90;99.90;;;;;;5185171;28;20471;-50
2022/06/05 04:11:36;;;;;;;11.53;10.40;;;11.00;99.90;;;;;;5183649;28;21049;-51
2022/06/05 04:14:07;;;;;;;17.80;10.43;;;11.00;99.90;;;;;;5185307;28;20478;-51
2022/06/05 04:16:40;;;;;;;13.80;10.23;;;11.10;99.90;;;;;;5178620;28;20498;-50
2022/06/05 04:19:11;;;;;;;12.63;10.33;;;11.20;99.90;;;;;;5186014;28;20430;-51
2022/06/05 04:21:44;;;;;;;23.90;10.70;;;11.40;99.90;;;;;;5185190;28;20439;-52
2022/06/05 04:24:16;;;;;;;13.93;9.87;;;11.60;99.90;;;;;;5185158;28;20695;-52
2022/06/05 04:26:46;;;;;;;10.83;8.57;;;11.90;99.90;;;;;;5184441;28;20474;-52
2022/06/05 04:29:17;;;;;;;13.07;9.97;;;12.20;99.90;;;;;;5180475;28;20794;-51
2022/06/05 04:31:49;;;;;;;9.73;8.70;;;12.50;99.90;;;;;;5178267;28;20212;-52
2022/06/05 04:34:22;;;;;;;16.10;9.90;;;12.60;99.90;;;;;;5186726;28;20565;-51
2022/06/05 04:36:54;;;;;;;18.10;8.50;;;12.70;99.90;;;;;;5185065;28;20967;-53
2022/06/05 04:39:24;;;;;;;15.13;8.53;;;12.80;99.90;;;;;;5186041;28;20478;-51
2022/06/05 04:41:55;;;;;;;8.53;7.50;;;13.00;99.90;;;;;;5193431;28;20972;-51
2022/06/05 04:44:25;;;;;;;12.80;7.70;;;13.40;99.90;;;;;;5196794;28;20207;-51
2022/06/05 04:46:56;;;;;;;15.90;7.90;;;13.90;99.90;;;;;;5180043;28;20672;-51
2022/06/05 04:49:27;;;;;;;8.67;7.87;;;14.60;99.90;;;;;;5185494;28;20192;-51
2022/06/05 04:51:57;;;;;;;9.57;7.10;;;15.20;99.90;;;;;;5184209;28;20219;-50
2022/06/05 04:54:28;;;;;;;11.27;7.07;;;16.20;99.90;;;;;;5183799;28;20184;-51
2022/06/05 04:56:58;;;;;;;8.53;7.30;;;17.50;99.90;;;;;;5184535;28;20204;-51
2022/06/05 04:59:29;;;;;;;8.00;7.20;;;18.50;93.10;;;;;;5187233;28;20642;-51
2022/06/05 05:02:00;;;;;;;8.03;7.13;;;19.30;88.00;;;;;;5185928;28;20184;-51
2022/06/05 05:04:30;;;;;;;7.13;6.43;;;20.10;77.40;;;;;;5167270;28;20192;-52
2022/06/05 05:07:01;;;;;;;9.90;5.97;;;20.70;69.70;;;;;;5184563;28;20295;-51
2022/06/05 05:09:31;;;;;;;12.87;6.50;;;21.70;62.50;;;;;;5184741;28;20197;-52
2022/06/05 05:12:02;;;;;;;12.77;6.23;;;22.40;58.10;;;;;;5184152;28;20200;-52
2022/06/05 05:14:33;;;;;;;9.77;6.07;;;23.00;54.60;;;;;;5183938;28;20271;-53
2022/06/05 05:17:04;;;;;;;6.10;5.60;;;23.70;52.60;;;;;;5184547;28;20697;-52
2022/06/05 05:19:34;;;;;;;7.50;6.17;;;24.20;50.90;;;;;;5183967;28;20180;-52
2022/06/05 05:22:05;;;;;;;5.67;5.17;;;25.00;48.50;;;;;;5180684;28;20199;-52
2022/06/05 05:24:36;;;;;;;5.87;5.23;;;26.10;46.10;;;;;;5183727;28;20644;-52
2022/06/05 05:27:06;;;;;;;12.40;5.30;;;27.00;43.60;;;;;;5199016;28;20212;-52
2022/06/05 05:29:39;;;;;;;8.23;4.80;;;27.60;40.50;;;;;;5198324;28;20606;-53
2022/06/05 05:32:10;;;;;;;5.97;5.37;;;27.30;40.50;;;;;;5184219;28;20236;-52
2022/06/05 05:34:41;;;;;;;5.93;4.50;;;27.20;40.40;;;;;;5190279;28;20431;-51
2022/06/05 05:37:11;;;;;;;6.10;5.50;;;26.70;40.90;;;;;;5186579;28;20204;-52
2022/06/05 05:42:31;;;;;;;6.97;5.57;;;26.50;41.30;;;;;;5188419;28;20215;-53
2022/06/05 05:45:02;;;;;;;4.53;4.23;;;26.80;40.90;;;;;;5188828;28;20827;-53
2022/06/05 05:47:33;;;;;;;5.47;4.87;;;27.10;40.70;;;;;;5208541;22;20225;-55
2022/06/05 05:50:07;;;;;;;8.50;5.33;;;27.00;40.00;;;;;;5185712;28;20973;-55
2022/06/05 05:52:38;;;;;;;4.80;4.40;;;26.80;40.80;;;;;;5176354;28;20172;-54
2022/06/05 05:55:15;;;;;;;6.40;5.57;;;27.70;39.60;;;;;;5177881;28;20845;-55
2022/06/05 05:57:47;;;;;;;6.17;4.60;;;28.10;38.40;;;;;;5178757;28;20201;-55
2022/06/05 06:00:19;;;;;;;5.33;4.90;;;28.60;37.50;;;;;;5165613;28;20994;-55
2022/06/05 06:02:49;;;;;;;4.67;4.37;;;28.80;37.30;;;;;;5162783;28;20465;-55
2022/06/05 06:05:20;;;;;;;5.90;4.30;;;29.10;36.50;;;;;;5163723;28;20580;-55
2022/06/05 06:07:51;;;;;;;4.67;4.20;;;29.50;36.00;;;;;;5164673;28;20295;-57
2022/06/05 06:10:22;;;;;;;5.30;4.80;;;29.80;35.50;;;;;;5158589;28;20209;-55
2022/06/05 06:12:52;;;;;;;5.03;4.63;;;29.60;35.30;;;;;;5156564;28;20229;-55
2022/06/05 06:15:23;;;;;;;5.60;5.07;;;29.30;35.70;;;;;;5158862;28;20229;-54
2022/06/05 06:17:53;;;;;;;11.30;4.30;;;29.70;35.50;;;;;;5166814;28;20205;-55
2022/06/05 06:20:24;;;;;;;5.20;4.80;;;30.40;34.70;;;;;;5157261;28;20186;-54
2022/06/05 06:22:54;;;;;;;9.10;4.83;;;30.90;34.00;;;;;;5165366;28;20726;-54
2022/06/05 06:25:25;;;;;;;3.83;3.53;;;30.50;33.40;;;;;;5166722;28;20188;-55
2022/06/05 06:27:56;;;;;;;4.13;3.90;;;31.00;33.30;;;;;;5165097;28;20299;-55
2022/06/05 06:30:27;;;;;;;5.37;4.23;;;32.00;32.80;;;;;;5164284;28;20542;-54
2022/06/05 06:32:57;;;;;;;3.67;3.47;;;33.00;30.70;;;;;;5165924;28;20560;-54
2022/06/05 06:35:28;;;;;;;4.80;4.40;;;32.90;30.50;;;;;;5160249;28;20185;-56
2022/06/05 06:37:59;;;;;;;4.30;4.00;;;33.10;30.10;;;;;;5161235;28;20208;-55
2022/06/05 06:40:30;;;;;;;6.83;4.17;;;33.20;30.10;;;;;;5153856;28;20254;-56
2022/06/05 06:43:01;;;;;;;4.87;4.40;;;34.00;30.00;;;;;;5164867;28;20238;-55
2022/06/05 06:45:32;;;;;;;4.37;3.97;;;34.50;28.90;;;;;;5158513;28;20436;-55
2022/06/05 06:48:03;;;;;;;3.90;3.67;;;33.90;29.10;;;;;;5160548;28;20311;-54
2022/06/05 06:50:36;;;;;;;5.07;4.60;;;34.20;29.10;;;;;;5165032;28;20631;-55
2022/06/05 06:53:07;;;;;;;4.33;4.03;;;34.70;28.80;;;;;;5166000;28;20748;-57
2022/06/05 06:55:38;;;;;;;4.17;3.97;;;35.50;28.30;;;;;;5161499;28;20233;-57
2022/06/05 06:58:08;;;;;;;3.63;3.33;;;36.50;27.20;;;;;;5166852;28;20256;-56
2022/06/05 07:00:39;;;;;;;6.43;3.93;;;35.70;27.40;;;;;;5162141;28;20555;-56
2022/06/05 07:03:10;;;;;;;4.27;3.97;;;35.20;27.80;;;;;;5159527;28;20200;-56
2022/06/05 07:05:40;;;;;;;4.27;3.93;;;33.90;28.60;;;;;;5163547;28;20184;-56
2022/06/05 07:08:11;;;;;;;5.30;3.97;;;33.70;29.20;;;;;;5165069;28;20211;-55
2022/06/05 07:10:43;;;;;;;4.73;4.33;;;33.90;29.10;;;;;;5160522;28;20294;-55
2022/06/05 07:13:14;;;;;;;6.80;4.20;;;34.50;28.50;;;;;;5162927;28;20195;-56
2022/06/05 07:15:44;;;;;;;3.50;3.30;;;34.90;28.00;;;;;;5162278;28;20436;-56
2022/06/05 07:18:15;;;;;;;4.63;3.70;;;35.10;28.00;;;;;;5164158;28;20568;-55
2022/06/05 07:20:46;;;;;;;5.33;4.67;;;35.90;27.60;;;;;;5172096;28;20192;-55
2022/06/05 07:23:17;;;;;;;5.47;4.50;;;35.60;27.20;;;;;;5159823;28;20195;-57
2022/06/05 07:25:51;;;;;;;5.00;4.57;;;36.10;27.50;;;;;;5165752;28;20307;-55
2022/06/05 07:28:22;;;;;;;4.17;3.87;;;35.90;26.90;;;;;;5157664;28;20212;-55
2022/06/05 07:30:53;;;;;;;9.30;4.43;;;35.90;27.00;;;;;;5153354;28;20298;-56
2022/06/05 07:33:23;;;;;;;6.53;5.00;;;35.60;26.90;;;;;;5157996;28;20554;-56
2022/06/05 07:35:58;;;;;;;4.07;3.70;;;34.60;27.60;;;;;;5159688;28;20169;-56
2022/06/05 07:38:29;;;;;;;5.07;4.67;;;34.90;28.10;;;;;;5163361;28;20208;-54
2022/06/05 07:41:01;;;;;;;4.23;4.03;;;36.10;27.60;;;;;;5155210;28;20548;-55
2022/06/05 07:43:32;;;;;;;4.43;4.00;;;36.20;26.50;;;;;;5163928;28;20565;-56
2022/06/05 07:46:06;;;;;;;4.00;3.63;;;36.10;26.60;;;;;;5161982;28;20188;-56
2022/06/05 07:48:37;;;;;;;4.30;4.00;;;36.50;26.20;;;;;;5159604;28;20226;-56
2022/06/05 07:56:59;;;;;;;3.80;3.60;;;35.60;26.80;;;;;;5155539;28;20637;-55
2022/06/05 07:59:36;;;;;;;4.30;4.00;;;35.40;27.10;;;;;;5163813;28;20184;-55
2022/06/05 08:02:19;;;;;;;4.03;3.73;;;35.70;27.00;;;;;;5165528;28;20644;-56
2022/06/05 08:04:51;;;;;;;5.03;4.53;;;35.40;27.10;;;;;;5162359;28;20196;-55
2022/06/05 08:07:24;;;;;;;4.37;4.00;;;35.10;27.00;;;;;;5157755;28;20259;-57
2022/06/05 08:09:55;;;;;;;4.23;3.93;;;35.40;27.50;;;;;;5157217;28;20282;-55
2022/06/05 08:12:29;;;;;;;4.30;4.00;;;35.20;27.20;;;;;;5157070;28;20234;-55
2022/06/05 08:15:09;;;;;;;3.83;3.17;;;34.50;27.50;;;;;;5160688;28;20444;-55
2022/06/05 08:17:40;;;;;;;4.20;3.87;;;35.10;27.70;;;;;;5163821;28;20209;-55
2022/06/05 08:20:12;;;;;;;4.10;3.80;;;34.20;27.30;;;;;;5166092;28;20187;-55
2022/06/05 08:22:43;;;;;;;3.80;3.50;;;33.60;28.70;;;;;;5158108;28;20531;-57
2022/06/05 08:25:14;;;;;;;3.20;3.10;;;33.90;27.70;;;;;;5156893;28;20921;-55
2022/06/05 08:27:46;;;;;;;3.83;3.43;;;34.60;27.60;;;;;;5163437;28;20200;-55
2022/06/05 08:30:16;;;;;;;3.37;2.97;;;34.80;26.50;;;;;;5163518;28;20207;-58
2022/06/05 08:32:47;;;;;;;3.40;3.10;;;34.20;27.30;;;;;;5161995;28;20288;-55
2022/06/05 08:35:17;;;;;;;4.30;3.63;;;34.10;27.30;;;;;;5163566;28;20264;-56
2022/06/05 08:43:56;;;;;;;3.33;2.83;;;34.50;27.00;;;;;;5152890;28;20268;-54
2022/06/05 08:46:32;;;;;;;2.90;2.80;;;33.80;26.30;;;;;;5163803;28;20469;-55
2022/06/05 08:49:11;;;;;;;3.13;3.03;;;33.30;26.90;;;;;;5161979;28;20670;-55
2022/06/05 08:51:54;;;;;;;2.90;2.70;;;31.70;28.30;;;;;;5163648;28;20477;-55
2022/06/05 08:54:59;;;;;;;2.80;2.70;;;29.40;29.90;;;;;;5154692;28;20953;-54
2022/06/05 08:57:32;;;;;;;3.37;2.50;;;27.70;33.10;;;;;;5147124;28;20800;-55
2022/06/05 09:00:20;;;;;;;4.33;3.10;;;26.40;36.60;;;;;;5160771;28;20476;-55
2022/06/05 09:03:10;;;;;;;3.10;2.87;;;25.60;36.60;;;;;;5160461;28;20879;-54
2022/06/05 09:05:45;;;;;;;3.00;2.77;;;24.80;36.70;;;;;;5162923;28;20428;-55
2022/06/05 09:08:22;;;;;;;2.60;2.40;;;24.40;36.30;;;;;;5157672;28;21042;-56
2022/06/05 09:10:58;;;;;;;3.13;2.53;;;24.20;37.80;;;;;;5162886;28;20942;-55
2022/06/05 09:13:42;;;;;;;3.33;3.03;;;24.30;38.50;;;;;;5159895;28;20932;-56
2022/06/05 09:16:28;;;;;;;3.20;3.07;;;24.50;38.50;;;;;;5160724;28;20482;-55
2022/06/05 09:18:59;;;;;;;4.13;3.40;;;24.50;38.60;;;;;;5157120;28;20550;-55
2022/06/05 09:21:36;;;;;;;5.60;3.63;;;24.40;39.20;;;;;;5164246;28;20525;-54
2022/06/05 09:24:20;;;;;;;3.70;3.50;;;24.20;39.60;;;;;;5163257;28;20554;-56
2022/06/05 09:26:56;;;;;;;3.50;3.30;;;24.20;39.60;;;;;;5167763;28;20443;-55
2022/06/05 09:29:59;;;;;;;4.60;3.30;;;24.10;39.90;;;;;;5168642;28;20423;-54
2022/06/05 09:32:53;;;;;;;3.40;3.20;;;24.00;39.70;;;;;;5156789;28;20590;-59
2022/06/05 09:35:33;;;;;;;3.60;3.30;;;24.00;40.40;;;;;;5165172;28;20420;-55
2022/06/05 09:38:18;;;;;;;3.23;3.03;;;24.00;40.60;;;;;;5168082;28;20447;-55
2022/06/05 09:41:12;;;;;;;6.03;3.00;;;24.10;41.10;;;;;;5162408;28;20425;-54
2022/06/05 09:44:24;;;;;;;4.60;3.70;;;24.10;40.70;;;;;;5157263;28;20428;-54
2022/06/05 09:46:59;;;;;;;3.57;3.37;;;24.20;41.20;;;;;;5166705;28;20987;-55
2022/06/05 09:49:41;;;;;;;4.77;3.50;;;24.10;41.30;;;;;;5163987;28;20430;-55
2022/06/05 09:52:32;;;;;;;2.97;2.87;;;24.10;41.10;;;;;;5167050;28;20519;-56
2022/06/05 09:55:08;;;;;;;3.40;3.30;;;24.10;40.70;;;;;;5169529;28;20428;-56
2022/06/05 10:00:43;;;;;;;3.10;2.70;;;24.20;40.00;;;;;;5162812;28;20448;-54
2022/06/05 10:03:21;;;;;;;2.77;2.63;;;24.20;39.70;;;;;;5168371;28;20441;-55
2022/06/05 10:06:19;;;;;;;3.50;3.20;;;24.30;39.40;;;;;;5163272;28;20421;-54
2022/06/05 10:09:09;;;;;;;3.27;2.97;;;24.20;39.10;;;;;;5163666;28;20872;-56
2022/06/05 10:11:55;;;;;;;3.37;2.73;;;24.20;39.10;;;;;;5163436;28;20464;-56
2022/06/05 10:14:33;;;;;;;2.50;2.40;;;24.30;39.20;;;;;;5169054;28;20412;-55
2022/06/05 10:17:26;;;;;;;2.77;2.67;;;24.50;39.50;;;;;;5164070;28;20513;-56
2022/06/05 10:20:27;;;;;;;3.10;2.90;;;24.70;38.70;;;;;;5167957;28;20451;-55
2022/06/05 10:23:23;;;;;;;4.30;2.67;;;24.60;38.90;;;;;;5166606;28;20427;-54
2022/06/05 10:26:25;;;;;;;3.63;2.40;;;24.70;39.20;;;;;;5166386;28;20428;-55
2022/06/05 10:29:17;;;;;;;4.23;2.63;;;24.90;38.90;;;;;;5162347;28;20452;-54
2022/06/05 10:32:05;;;;;;;4.40;2.97;;;24.80;39.60;;;;;;5162383;28;20476;-54
2022/06/05 10:35:14;;;;;;;13.90;2.73;;;24.50;39.60;;;;;;5154227;28;20440;-54
2022/06/05 10:38:28;;;;;;;2.30;2.27;;;24.60;40.10;;;;;;5088480;29;20455;-54
2022/06/05 10:41:18;;;;;;;3.43;3.23;;;24.50;40.10;;;;;;5160096;28;20530;-54
2022/06/05 10:44:09;;;;;;;3.67;3.17;;;24.50;40.60;;;;;;5164412;28;20888;-54
2022/06/05 10:46:47;;;;;;;3.93;3.63;;;24.50;40.80;;;;;;5163774;28;20577;-52
2022/06/05 10:49:36;;;;;;;4.40;3.60;;;24.50;41.90;;;;;;5159732;28;20451;-55
2022/06/05 10:52:19;;;;;;;7.67;3.93;;;24.60;41.70;;;;;;5164899;28;20510;-55
2022/06/05 10:54:57;;;;;;;3.67;3.47;;;24.80;42.00;;;;;;5163802;28;20523;-55
2022/06/05 10:57:36;;;;;;;4.53;4.13;;;25.00;41.60;;;;;;5162478;28;20456;-56
2022/06/05 11:00:17;;;;;;;5.20;3.20;;;25.20;41.20;;;;;;5153659;28;20420;-54
2022/06/05 11:03:27;;;;;;;3.53;3.30;;;25.10;41.50;;;;;;5163246;28;20412;-58
2022/06/05 11:06:14;;;;;;;5.23;4.00;;;25.00;41.70;;;;;;5150251;28;20486;-55
2022/06/05 11:09:12;;;;;;;3.57;3.37;;;25.10;41.90;;;;;;5157883;28;20887;-55
2022/06/05 11:14:58;;;;;;;4.00;3.80;;;24.90;43.10;;;;;;5166394;28;20447;-58
2022/06/05 11:17:46;;;;;;;4.57;3.93;;;25.00;43.20;;;;;;5151369;28;20778;-55
2022/06/05 11:20:26;;;;;;;4.50;4.07;;;25.00;42.60;;;;;;5163235;28;20447;-56
2022/06/05 11:23:19;;;;;;;3.70;3.40;;;25.10;42.60;;;;;;5164130;28;20436;-55
2022/06/05 11:25:57;;;;;;;3.90;3.70;;;25.10;42.80;;;;;;5164758;28;20432;-55
2022/06/05 11:28:46;;;;;;;4.23;4.00;;;25.20;43.50;;;;;;5158832;28;20514;-56
2022/06/05 11:31:38;;;;;;;5.20;4.70;;;25.20;42.90;;;;;;5158193;28;20488;-56
2022/06/05 11:34:46;;;;;;;3.90;3.70;;;25.20;43.30;;;;;;5163815;28;20437;-55
2022/06/05 11:37:48;;;;;;;5.20;4.50;;;25.10;43.50;;;;;;5165274;28;20460;-55
2022/06/05 11:40:42;;;;;;;4.40;4.10;;;25.00;44.00;;;;;;5161390;28;20579;-55
2022/06/05 11:43:33;;;;;;;4.57;4.23;;;25.10;43.60;;;;;;5160964;28;20436;-56
2022/06/05 11:46:09;;;;;;;7.30;4.47;;;25.10;43.90;;;;;;5161684;28;20437;-57
2022/06/05 11:48:50;;;;;;;4.03;3.73;;;25.20;44.20;;;;;;5161400;28;21063;-57
2022/06/05 11:51:34;;;;;;;4.60;4.20;;;25.30;43.60;;;;;;5159287;28;20472;-57
2022/06/05 11:54:17;;;;;;;4.67;4.37;;;25.40;43.90;;;;;;5156738;28;20468;-57
2022/06/05 11:57:08;;;;;;;4.20;4.00;;;25.50;43.50;;;;;;5157761;28;20439;-57
2022/06/05 11:59:58;;;;;;;3.93;3.73;;;25.60;43.40;;;;;;5155954;28;20894;-55
2022/06/05 12:02:43;;;;;;;4.90;4.60;;;25.50;44.00;;;;;;5154980;28;20467;-55
2022/06/05 12:05:29;;;;;;;4.07;3.87;;;25.50;43.90;;;;;;5152458;28;21034;-55
2022/06/05 12:08:09;;;;;;;4.97;4.13;;;25.50;43.30;;;;;;5163406;28;20482;-56
2022/06/05 12:11:10;;;;;;;4.40;4.10;;;25.40;44.00;;;;;;5162846;28;20470;-56
2022/06/05 12:14:00;;;;;;;4.53;4.10;;;25.40;44.20;;;;;;5161830;28;20427;-55
2022/06/05 12:16:32;;;;;;;4.13;3.83;;;25.40;43.50;;;;;;5157430;28;20961;-56
2022/06/05 12:19:12;;;;;;;4.80;4.50;;;25.40;43.70;;;;;;5160358;28;20853;-56
2022/06/05 12:21:54;;;;;;;7.97;4.97;;;25.50;44.30;;;;;;5159885;28;20433;-56
2022/06/05 12:24:40;;;;;;;4.43;4.17;;;25.50;44.20;;;;;;5149747;28;20451;-57
2022/06/05 12:27:15;;;;;;;4.17;3.90;;;25.50;43.90;;;;;;5164028;28;20476;-56
2022/06/05 12:30:06;;;;;;;3.80;3.60;;;25.50;44.10;;;;;;5156833;28;20482;-55
2022/06/05 12:32:54;;;;;;;3.93;3.63;;;25.60;42.70;;;;;;5153835;28;20463;-57
2022/06/05 12:35:35;;;;;;;11.73;4.47;;;25.70;43.40;;;;;;5163177;28;20428;-56
2022/06/05 12:38:14;;;;;;;5.40;4.53;;;25.90;43.20;;;;;;5163247;28;20475;-55
2022/06/05 12:40:55;;;;;;;4.10;3.70;;;25.80;43.20;;;;;;5152607;28;20994;-57
2022/06/05 12:44:03;;;;;;;8.03;4.63;;;25.90;43.30;;;;;;5156777;28;20751;-57
2022/06/05 12:46:49;;;;;;;4.53;4.13;;;26.00;42.40;;;;;;5160296;28;20435;-58
2022/06/05 12:49:42;;;;;;;7.40;4.50;;;26.30;42.60;;;;;;5163569;28;20959;-58
2022/06/05 12:52:48;;;;;;;4.07;3.77;;;26.30;42.60;;;;;;5165991;28;20464;-56
2022/06/05 12:55:28;;;;;;;4.50;4.10;;;26.30;42.90;;;;;;5150466;28;20492;-58
2022/06/05 12:58:25;;;;;;;3.80;3.60;;;26.40;42.60;;;;;;5162213;28;20836;-57
2022/06/05 13:01:05;;;;;;;4.83;4.53;;;26.40;42.20;;;;;;5167064;28;20863;-55
2022/06/05 13:03:59;;;;;;;3.57;3.40;;;26.60;41.40;;;;;;5165511;28;20444;-57
2022/06/05 13:06:38;;;;;;;5.43;4.90;;;26.60;42.40;;;;;;5147990;28;20832;-55
2022/06/05 13:09:22;;;;;;;4.37;3.97;;;26.50;42.50;;;;;;5160598;28;20449;-55
2022/06/05 13:12:21;;;;;;;3.83;3.60;;;26.30;43.10;;;;;;5164241;28;20478;-56
2022/06/05 13:15:28;;;;;;;5.00;4.60;;;26.20;43.50;;;;;;5162509;28;20443;-54
2022/06/05 13:18:08;;;;;;;5.43;4.77;;;26.30;43.60;;;;;;5160828;28;20447;-56
2022/06/05 13:21:00;;;;;;;4.40;4.20;;;26.40;43.60;;;;;;5166936;28;20435;-57
2022/06/05 13:23:58;;;;;;;4.63;4.43;;;26.50;43.10;;;;;;5164132;28;20519;-57
2022/06/05 13:27:10;;;;;;;6.60;4.87;;;26.40;43.00;;;;;;5155529;28;20791;-57
2022/06/05 13:29:40;;;;;;;5.33;3.93;;;26.30;43.40;;;;;;5156270;28;20498;-56
2022/06/05 13:32:48;;;;;;;4.80;4.37;;;26.50;42.90;;;;;;5166225;28;20895;-55
2022/06/05 13:35:48;;;;;;;3.90;3.70;;;26.50;42.40;;;;;;5157594;28;20549;-55
2022/06/05 13:38:26;;;;;;;5.53;4.27;;;26.50;42.40;;;;;;5168294;28;20457;-57
2022/06/05 13:41:05;;;;;;;6.83;4.50;;;26.50;42.20;;;;;;5165156;28;20959;-55
2022/06/05 13:43:40;;;;;;;4.90;4.50;;;26.50;42.50;;;;;;5152351;28;20913;-56
2022/06/05 13:46:23;;;;;;;4.00;3.80;;;26.50;43.20;;;;;;5162232;28;20637;-56
2022/06/05 13:49:01;;;;;;;4.60;4.30;;;26.70;41.50;;;;;;5163891;28;20487;-57
2022/06/05 13:51:41;;;;;;;4.33;4.13;;;26.70;40.70;;;;;;5164647;28;20691;-57
2022/06/05 13:54:23;;;;;;;6.13;4.30;;;26.70;40.40;;;;;;5153216;28;20419;-55
2022/06/05 13:57:31;;;;;;;15.40;4.67;;;27.00;40.40;;;;;;5150063;28;20429;-56
2022/06/05 14:00:17;;;;;;;4.90;4.57;;;27.10;40.30;;;;;;5160841;28;20419;-57
2022/06/05 14:03:32;;;;;;;4.47;4.20;;;27.10;40.40;;;;;;5156866;28;20443;-55
2022/06/05 14:06:26;;;;;;;3.77;3.67;;;27.10;40.80;;;;;;5144052;28;20455;-56
2022/06/05 14:09:03;;;;;;;5.13;4.70;;;27.10;40.60;;;;;;5166487;28;20578;-56
2022/06/05 14:11:45;;;;;;;4.10;3.90;;;27.20;40.70;;;;;;5165865;28;20499;-57
2022/06/05 14:14:16;;;;;;;4.37;3.97;;;27.10;40.50;;;;;;5155798;28;20439;-56